sensor_id;sensor_type;location;lat;lon;timestamp;temperature;humidity
83405;SHT30;73331;48.168;20.776;2024-03-22T00:00:03;7.66;69.41
83405;SHT30;73331;48.168;20.776;2024-03-22T00:01:34;7.69;69.29
83405;SHT30;73331;48.168;20.776;2024-03-22T00:03:05;7.38;70.35
83405;SHT30;73331;48.168;20.776;2024-03-22T00:04:36;7.45;70.57
83405;SHT30;73331;48.168;20.776;2024-03-22T00:06:07;7.94;68.75
83405;SHT30;73331;48.168;20.776;2024-03-22T00:07:37;8.17;68.02
83405;SHT30;73331;48.168;20.776;2024-03-22T00:09:09;8.20;67.92
83405;SHT30;73331;48.168;20.776;2024-03-22T00:10:39;8.17;68.21
83405;SHT30;73331;48.168;20.776;2024-03-22T00:12:10;8.03;68.80
83405;SHT30;73331;48.168;20.776;2024-03-22T00:13:40;8.03;68.81
83405;SHT30;73331;48.168;20.776;2024-03-22T00:15:11;8.04;69.06
83405;SHT30;73331;48.168;20.776;2024-03-22T00:16:42;8.08;69.31
83405;SHT30;73331;48.168;20.776;2024-03-22T00:18:12;8.01;69.44
83405;SHT30;73331;48.168;20.776;2024-03-22T00:19:43;8.00;69.50
83405;SHT30;73331;48.168;20.776;2024-03-22T00:21:13;7.90;69.86
83405;SHT30;73331;48.168;20.776;2024-03-22T00:22:44;7.93;69.92
83405;SHT30;73331;48.168;20.776;2024-03-22T00:24:14;7.74;70.42
83405;SHT30;73331;48.168;20.776;2024-03-22T00:25:45;7.69;70.68
83405;SHT30;73331;48.168;20.776;2024-03-22T00:27:15;7.56;71.18
83405;SHT30;73331;48.168;20.776;2024-03-22T00:28:45;7.93;69.88
83405;SHT30;73331;48.168;20.776;2024-03-22T00:30:16;8.05;69.02
83405;SHT30;73331;48.168;20.776;2024-03-22T00:31:46;7.62;70.41
83405;SHT30;73331;48.168;20.776;2024-03-22T00:33:17;7.43;71.11
83405;SHT30;73331;48.168;20.776;2024-03-22T00:34:47;7.28;72.03
83405;SHT30;73331;48.168;20.776;2024-03-22T00:36:18;7.23;72.28
83405;SHT30;73331;48.168;20.776;2024-03-22T00:37:48;7.22;72.55
83405;SHT30;73331;48.168;20.776;2024-03-22T00:39:19;7.19;72.43
83405;SHT30;73331;48.168;20.776;2024-03-22T00:40:49;7.20;72.58
83405;SHT30;73331;48.168;20.776;2024-03-22T00:42:20;7.84;70.21
83405;SHT30;73331;48.168;20.776;2024-03-22T00:43:50;8.11;68.97
83405;SHT30;73331;48.168;20.776;2024-03-22T00:45:21;8.20;68.58
83405;SHT30;73331;48.168;20.776;2024-03-22T00:46:51;8.33;68.00
83405;SHT30;73331;48.168;20.776;2024-03-22T00:48:22;8.33;67.68
83405;SHT30;73331;48.168;20.776;2024-03-22T00:49:52;8.33;67.72
83405;SHT30;73331;48.168;20.776;2024-03-22T00:51:23;8.21;67.85
83405;SHT30;73331;48.168;20.776;2024-03-22T00:52:54;7.80;69.57
83405;SHT30;73331;48.168;20.776;2024-03-22T00:54:26;7.56;70.64
83405;SHT30;73331;48.168;20.776;2024-03-22T00:55:57;7.40;71.11
83405;SHT30;73331;48.168;20.776;2024-03-22T00:57:29;7.29;71.72
83405;SHT30;73331;48.168;20.776;2024-03-22T00:58:59;7.20;72.19
83405;SHT30;73331;48.168;20.776;2024-03-22T01:00:30;7.16;72.39
83405;SHT30;73331;48.168;20.776;2024-03-22T01:02:00;7.14;72.62
83405;SHT30;73331;48.168;20.776;2024-03-22T01:03:31;7.09;72.76
83405;SHT30;73331;48.168;20.776;2024-03-22T01:05:02;7.19;72.53
83405;SHT30;73331;48.168;20.776;2024-03-22T01:06:32;7.23;72.65
83405;SHT30;73331;48.168;20.776;2024-03-22T01:08:04;7.06;73.42
83405;SHT30;73331;48.168;20.776;2024-03-22T01:09:35;7.08;73.56
83405;SHT30;73331;48.168;20.776;2024-03-22T01:11:05;7.06;73.52
83405;SHT30;73331;48.168;20.776;2024-03-22T01:12:36;7.39;72.03
83405;SHT30;73331;48.168;20.776;2024-03-22T01:14:07;7.39;72.25
83405;SHT30;73331;48.168;20.776;2024-03-22T01:15:37;7.35;72.41
83405;SHT30;73331;48.168;20.776;2024-03-22T01:17:08;7.26;72.72
83405;SHT30;73331;48.168;20.776;2024-03-22T01:18:38;7.98;70.89
83405;SHT30;73331;48.168;20.776;2024-03-22T01:20:09;8.10;69.99
83405;SHT30;73331;48.168;20.776;2024-03-22T01:21:41;8.11;69.88
83405;SHT30;73331;48.168;20.776;2024-03-22T01:23:11;7.84;71.00
83405;SHT30;73331;48.168;20.776;2024-03-22T01:24:42;8.14;70.56
83405;SHT30;73331;48.168;20.776;2024-03-22T01:26:12;7.94;71.62
83405;SHT30;73331;48.168;20.776;2024-03-22T01:27:43;7.81;72.03
83405;SHT30;73331;48.168;20.776;2024-03-22T01:29:14;7.81;72.23
83405;SHT30;73331;48.168;20.776;2024-03-22T01:30:44;7.90;71.75
83405;SHT30;73331;48.168;20.776;2024-03-22T01:32:15;7.91;71.54
83405;SHT30;73331;48.168;20.776;2024-03-22T01:33:45;7.90;70.68
83405;SHT30;73331;48.168;20.776;2024-03-22T01:35:16;7.93;70.31
83405;SHT30;73331;48.168;20.776;2024-03-22T01:36:46;7.89;70.35
83405;SHT30;73331;48.168;20.776;2024-03-22T01:38:17;7.98;70.23
83405;SHT30;73331;48.168;20.776;2024-03-22T01:39:47;8.05;70.09
83405;SHT30;73331;48.168;20.776;2024-03-22T01:41:18;8.10;69.97
83405;SHT30;73331;48.168;20.776;2024-03-22T01:42:52;8.13;69.97
83405;SHT30;73331;48.168;20.776;2024-03-22T01:44:29;7.83;70.77
83405;SHT30;73331;48.168;20.776;2024-03-22T01:46:01;7.58;72.04
83405;SHT30;73331;48.168;20.776;2024-03-22T01:47:31;7.29;73.21
83405;SHT30;73331;48.168;20.776;2024-03-22T01:49:02;7.25;73.70
83405;SHT30;73331;48.168;20.776;2024-03-22T01:50:33;7.19;73.94
83405;SHT30;73331;48.168;20.776;2024-03-22T01:52:04;7.09;74.61
83405;SHT30;73331;48.168;20.776;2024-03-22T01:53:35;7.05;74.76
83405;SHT30;73331;48.168;20.776;2024-03-22T01:55:07;7.11;74.55
83405;SHT30;73331;48.168;20.776;2024-03-22T01:56:39;7.08;74.49
83405;SHT30;73331;48.168;20.776;2024-03-22T01:58:10;7.05;74.60
83405;SHT30;73331;48.168;20.776;2024-03-22T01:59:42;7.04;74.67
83405;SHT30;73331;48.168;20.776;2024-03-22T02:01:13;7.01;74.66
83405;SHT30;73331;48.168;20.776;2024-03-22T02:02:44;7.02;74.67
83405;SHT30;73331;48.168;20.776;2024-03-22T02:04:14;6.99;74.69
83405;SHT30;73331;48.168;20.776;2024-03-22T02:05:45;7.02;74.67
83405;SHT30;73331;48.168;20.776;2024-03-22T02:07:15;7.02;74.74
83405;SHT30;73331;48.168;20.776;2024-03-22T02:08:46;7.01;74.74
83405;SHT30;73331;48.168;20.776;2024-03-22T02:10:16;7.04;74.87
83405;SHT30;73331;48.168;20.776;2024-03-22T02:11:47;7.16;74.47
83405;SHT30;73331;48.168;20.776;2024-03-22T02:13:18;7.71;72.28
83405;SHT30;73331;48.168;20.776;2024-03-22T02:14:50;7.93;71.26
83405;SHT30;73331;48.168;20.776;2024-03-22T02:16:20;7.94;71.48
83405;SHT30;73331;48.168;20.776;2024-03-22T02:17:51;8.17;70.45
83405;SHT30;73331;48.168;20.776;2024-03-22T02:19:21;8.35;69.72
83405;SHT30;73331;48.168;20.776;2024-03-22T02:20:52;8.25;70.10
83405;SHT30;73331;48.168;20.776;2024-03-22T02:22:22;8.40;69.60
83405;SHT30;73331;48.168;20.776;2024-03-22T02:23:53;8.37;69.59
83405;SHT30;73331;48.168;20.776;2024-03-22T02:25:23;8.05;70.53
83405;SHT30;73331;48.168;20.776;2024-03-22T02:26:54;8.03;70.84
83405;SHT30;73331;48.168;20.776;2024-03-22T02:28:24;7.94;71.06
83405;SHT30;73331;48.168;20.776;2024-03-22T02:29:55;7.95;71.21
83405;SHT30;73331;48.168;20.776;2024-03-22T02:31:25;7.91;71.21
83405;SHT30;73331;48.168;20.776;2024-03-22T02:32:57;8.14;70.73
83405;SHT30;73331;48.168;20.776;2024-03-22T02:34:27;8.23;70.57
83405;SHT30;73331;48.168;20.776;2024-03-22T02:35:58;8.27;70.26
83405;SHT30;73331;48.168;20.776;2024-03-22T02:37:28;8.31;70.30
83405;SHT30;73331;48.168;20.776;2024-03-22T02:38:59;8.30;70.25
83405;SHT30;73331;48.168;20.776;2024-03-22T02:40:29;8.37;70.48
83405;SHT30;73331;48.168;20.776;2024-03-22T02:42:00;8.25;70.89
83405;SHT30;73331;48.168;20.776;2024-03-22T02:43:30;8.25;70.95
83405;SHT30;73331;48.168;20.776;2024-03-22T02:45:01;8.20;71.22
83405;SHT30;73331;48.168;20.776;2024-03-22T02:46:31;8.20;71.29
83405;SHT30;73331;48.168;20.776;2024-03-22T02:48:02;8.17;71.36
83405;SHT30;73331;48.168;20.776;2024-03-22T02:49:32;8.21;71.34
83405;SHT30;73331;48.168;20.776;2024-03-22T02:51:03;8.21;71.35
83405;SHT30;73331;48.168;20.776;2024-03-22T02:52:33;8.20;71.45
83405;SHT30;73331;48.168;20.776;2024-03-22T02:54:04;8.17;71.27
83405;SHT30;73331;48.168;20.776;2024-03-22T02:55:39;7.94;72.31
83405;SHT30;73331;48.168;20.776;2024-03-22T02:57:09;8.23;71.29
83405;SHT30;73331;48.168;20.776;2024-03-22T02:58:40;8.37;70.60
83405;SHT30;73331;48.168;20.776;2024-03-22T03:00:10;8.08;71.74
83405;SHT30;73331;48.168;20.776;2024-03-22T03:01:41;7.80;72.78
83405;SHT30;73331;48.168;20.776;2024-03-22T03:03:12;7.67;73.45
83405;SHT30;73331;48.168;20.776;2024-03-22T03:04:42;7.55;74.02
83405;SHT30;73331;48.168;20.776;2024-03-22T03:06:12;7.53;74.15
83405;SHT30;73331;48.168;20.776;2024-03-22T03:07:43;7.55;74.32
83405;SHT30;73331;48.168;20.776;2024-03-22T03:09:14;7.46;74.52
83405;SHT30;73331;48.168;20.776;2024-03-22T03:10:45;7.50;74.49
83405;SHT30;73331;48.168;20.776;2024-03-22T03:12:16;7.43;74.94
83405;SHT30;73331;48.168;20.776;2024-03-22T03:13:46;7.38;75.16
83405;SHT30;73331;48.168;20.776;2024-03-22T03:15:17;7.39;75.03
83405;SHT30;73331;48.168;20.776;2024-03-22T03:16:47;7.45;74.94
83405;SHT30;73331;48.168;20.776;2024-03-22T03:18:18;7.48;75.21
83405;SHT30;73331;48.168;20.776;2024-03-22T03:19:48;7.71;74.64
83405;SHT30;73331;48.168;20.776;2024-03-22T03:21:19;7.49;74.58
83405;SHT30;73331;48.168;20.776;2024-03-22T03:22:49;7.50;74.98
83405;SHT30;73331;48.168;20.776;2024-03-22T03:24:20;7.56;74.62
83405;SHT30;73331;48.168;20.776;2024-03-22T03:25:50;7.73;73.87
83405;SHT30;73331;48.168;20.776;2024-03-22T03:27:21;7.50;74.76
83405;SHT30;73331;48.168;20.776;2024-03-22T03:28:51;7.42;75.40
83405;SHT30;73331;48.168;20.776;2024-03-22T03:30:22;7.56;74.79
83405;SHT30;73331;48.168;20.776;2024-03-22T03:31:52;7.55;74.88
83405;SHT30;73331;48.168;20.776;2024-03-22T03:33:23;7.67;74.33
83405;SHT30;73331;48.168;20.776;2024-03-22T03:34:53;7.50;74.88
83405;SHT30;73331;48.168;20.776;2024-03-22T03:36:24;7.46;75.20
83405;SHT30;73331;48.168;20.776;2024-03-22T03:37:54;7.45;75.05
83405;SHT30;73331;48.168;20.776;2024-03-22T03:39:25;7.39;75.34
83405;SHT30;73331;48.168;20.776;2024-03-22T03:40:55;7.43;75.16
83405;SHT30;73331;48.168;20.776;2024-03-22T03:42:26;7.36;75.33
83405;SHT30;73331;48.168;20.776;2024-03-22T03:43:56;7.26;75.82
83405;SHT30;73331;48.168;20.776;2024-03-22T03:45:27;7.20;76.03
83405;SHT30;73331;48.168;20.776;2024-03-22T03:47:00;7.18;76.33
83405;SHT30;73331;48.168;20.776;2024-03-22T03:48:30;7.08;77.07
83405;SHT30;73331;48.168;20.776;2024-03-22T03:50:01;7.08;77.02
83405;SHT30;73331;48.168;20.776;2024-03-22T03:51:31;7.15;76.46
83405;SHT30;73331;48.168;20.776;2024-03-22T03:53:02;7.15;76.10
83405;SHT30;73331;48.168;20.776;2024-03-22T03:54:32;7.18;75.57
83405;SHT30;73331;48.168;20.776;2024-03-22T03:56:03;7.19;74.83
83405;SHT30;73331;48.168;20.776;2024-03-22T03:57:33;7.18;74.59
83405;SHT30;73331;48.168;20.776;2024-03-22T03:59:04;7.19;74.63
83405;SHT30;73331;48.168;20.776;2024-03-22T04:00:35;7.20;74.43
83405;SHT30;73331;48.168;20.776;2024-03-22T04:02:05;7.20;74.32
83405;SHT30;73331;48.168;20.776;2024-03-22T04:03:35;7.22;74.22
83405;SHT30;73331;48.168;20.776;2024-03-22T04:05:06;7.22;74.02
83405;SHT30;73331;48.168;20.776;2024-03-22T04:06:37;7.29;74.04
83405;SHT30;73331;48.168;20.776;2024-03-22T04:08:07;7.35;73.68
83405;SHT30;73331;48.168;20.776;2024-03-22T04:09:38;7.32;73.88
83405;SHT30;73331;48.168;20.776;2024-03-22T04:11:08;7.29;74.15
83405;SHT30;73331;48.168;20.776;2024-03-22T04:12:39;7.25;74.67
83405;SHT30;73331;48.168;20.776;2024-03-22T04:14:09;7.23;74.91
83405;SHT30;73331;48.168;20.776;2024-03-22T04:15:40;7.22;75.04
83405;SHT30;73331;48.168;20.776;2024-03-22T04:17:10;7.18;75.30
83405;SHT30;73331;48.168;20.776;2024-03-22T04:18:41;7.18;75.27
83405;SHT30;73331;48.168;20.776;2024-03-22T04:20:12;7.19;75.44
83405;SHT30;73331;48.168;20.776;2024-03-22T04:21:42;7.19;75.57
83405;SHT30;73331;48.168;20.776;2024-03-22T04:23:13;7.20;75.38
83405;SHT30;73331;48.168;20.776;2024-03-22T04:24:43;7.20;75.11
83405;SHT30;73331;48.168;20.776;2024-03-22T04:26:14;7.22;75.28
83405;SHT30;73331;48.168;20.776;2024-03-22T04:27:45;7.28;74.89
83405;SHT30;73331;48.168;20.776;2024-03-22T04:29:15;7.32;74.73
83405;SHT30;73331;48.168;20.776;2024-03-22T04:31:06;7.33;74.54
83405;SHT30;73331;48.168;20.776;2024-03-22T04:32:38;7.36;74.08
83405;SHT30;73331;48.168;20.776;2024-03-22T04:34:09;7.74;73.15
83405;SHT30;73331;48.168;20.776;2024-03-22T04:35:45;8.13;71.39
83405;SHT30;73331;48.168;20.776;2024-03-22T04:37:16;8.37;71.03
83405;SHT30;73331;48.168;20.776;2024-03-22T04:38:46;8.52;70.48
83405;SHT30;73331;48.168;20.776;2024-03-22T04:40:17;8.45;70.96
83405;SHT30;73331;48.168;20.776;2024-03-22T04:41:47;8.40;70.83
83405;SHT30;73331;48.168;20.776;2024-03-22T04:43:18;8.08;71.72
83405;SHT30;73331;48.168;20.776;2024-03-22T04:44:48;7.89;72.40
83405;SHT30;73331;48.168;20.776;2024-03-22T04:46:19;7.87;72.20
83405;SHT30;73331;48.168;20.776;2024-03-22T04:47:49;8.14;71.35
83405;SHT30;73331;48.168;20.776;2024-03-22T04:49:20;8.45;70.29
83405;SHT30;73331;48.168;20.776;2024-03-22T04:50:51;8.56;69.81
83405;SHT30;73331;48.168;20.776;2024-03-22T04:52:22;8.66;70.45
83405;SHT30;73331;48.168;20.776;2024-03-22T04:53:53;8.61;70.14
83405;SHT30;73331;48.168;20.776;2024-03-22T04:55:23;8.01;72.06
83405;SHT30;73331;48.168;20.776;2024-03-22T04:56:54;7.73;73.32
83405;SHT30;73331;48.168;20.776;2024-03-22T04:58:24;7.62;74.06
83405;SHT30;73331;48.168;20.776;2024-03-22T04:59:55;7.50;74.24
83405;SHT30;73331;48.168;20.776;2024-03-22T05:01:25;7.43;74.63
83405;SHT30;73331;48.168;20.776;2024-03-22T05:02:56;7.48;75.00
83405;SHT30;73331;48.168;20.776;2024-03-22T05:04:26;7.52;74.37
83405;SHT30;73331;48.168;20.776;2024-03-22T05:05:57;7.55;74.32
83405;SHT30;73331;48.168;20.776;2024-03-22T05:07:28;7.62;74.31
83405;SHT30;73331;48.168;20.776;2024-03-22T05:08:58;7.66;74.88
83405;SHT30;73331;48.168;20.776;2024-03-22T05:10:29;7.70;74.99
83405;SHT30;73331;48.168;20.776;2024-03-22T05:12:00;7.83;74.75
83405;SHT30;73331;48.168;20.776;2024-03-22T05:13:31;7.77;74.82
83405;SHT30;73331;48.168;20.776;2024-03-22T05:15:05;7.71;75.08
83405;SHT30;73331;48.168;20.776;2024-03-22T05:16:36;7.74;75.28
83405;SHT30;73331;48.168;20.776;2024-03-22T05:18:08;7.76;75.48
83405;SHT30;73331;48.168;20.776;2024-03-22T05:19:38;7.80;75.70
83405;SHT30;73331;48.168;20.776;2024-03-22T05:21:08;7.80;75.91
83405;SHT30;73331;48.168;20.776;2024-03-22T05:22:39;7.87;75.36
83405;SHT30;73331;48.168;20.776;2024-03-22T05:24:10;7.98;75.03
83405;SHT30;73331;48.168;20.776;2024-03-22T05:25:40;7.90;75.43
83405;SHT30;73331;48.168;20.776;2024-03-22T05:27:11;7.93;75.56
83405;SHT30;73331;48.168;20.776;2024-03-22T05:28:41;7.94;75.40
83405;SHT30;73331;48.168;20.776;2024-03-22T05:30:13;7.97;75.08
83405;SHT30;73331;48.168;20.776;2024-03-22T05:31:48;7.95;74.97
83405;SHT30;73331;48.168;20.776;2024-03-22T05:33:19;8.03;74.59
83405;SHT30;73331;48.168;20.776;2024-03-22T05:34:49;8.07;74.48
83405;SHT30;73331;48.168;20.776;2024-03-22T05:36:20;8.10;74.38
83405;SHT30;73331;48.168;20.776;2024-03-22T05:37:50;8.18;74.33
83405;SHT30;73331;48.168;20.776;2024-03-22T05:39:21;8.17;74.21
83405;SHT30;73331;48.168;20.776;2024-03-22T05:40:51;8.21;74.16
83405;SHT30;73331;48.168;20.776;2024-03-22T05:42:22;8.25;73.88
83405;SHT30;73331;48.168;20.776;2024-03-22T05:43:52;8.52;73.26
83405;SHT30;73331;48.168;20.776;2024-03-22T05:45:23;8.49;73.71
83405;SHT30;73331;48.168;20.776;2024-03-22T05:46:53;8.44;73.87
83405;SHT30;73331;48.168;20.776;2024-03-22T05:48:24;8.41;74.62
83405;SHT30;73331;48.168;20.776;2024-03-22T05:49:54;9.12;71.60
83405;SHT30;73331;48.168;20.776;2024-03-22T05:51:26;9.30;70.56
83405;SHT30;73331;48.168;20.776;2024-03-22T05:52:56;9.33;70.33
83405;SHT30;73331;48.168;20.776;2024-03-22T05:54:27;9.36;70.12
83405;SHT30;73331;48.168;20.776;2024-03-22T05:55:57;9.36;70.73
83405;SHT30;73331;48.168;20.776;2024-03-22T05:57:28;9.39;71.44
83405;SHT30;73331;48.168;20.776;2024-03-22T05:58:58;9.29;71.85
83405;SHT30;73331;48.168;20.776;2024-03-22T06:00:29;9.33;72.34
83405;SHT30;73331;48.168;20.776;2024-03-22T06:02:00;9.34;72.57
83405;SHT30;73331;48.168;20.776;2024-03-22T06:03:31;9.24;72.90
83405;SHT30;73331;48.168;20.776;2024-03-22T06:05:02;9.07;72.43
83405;SHT30;73331;48.168;20.776;2024-03-22T06:06:34;9.09;72.26
83405;SHT30;73331;48.168;20.776;2024-03-22T06:08:05;9.02;71.83
83405;SHT30;73331;48.168;20.776;2024-03-22T06:09:35;8.87;73.06
83405;SHT30;73331;48.168;20.776;2024-03-22T06:11:16;8.95;73.44
83405;SHT30;73331;48.168;20.776;2024-03-22T06:12:46;8.96;73.25
83405;SHT30;73331;48.168;20.776;2024-03-22T06:14:17;9.13;72.67
83405;SHT30;73331;48.168;20.776;2024-03-22T06:15:49;9.15;72.68
83405;SHT30;73331;48.168;20.776;2024-03-22T06:17:19;8.85;74.18
83405;SHT30;73331;48.168;20.776;2024-03-22T06:18:50;8.66;74.69
83405;SHT30;73331;48.168;20.776;2024-03-22T06:20:20;9.07;72.89
83405;SHT30;73331;48.168;20.776;2024-03-22T06:21:51;9.09;72.55
83405;SHT30;73331;48.168;20.776;2024-03-22T06:23:22;9.29;71.88
83405;SHT30;73331;48.168;20.776;2024-03-22T06:24:53;9.41;71.27
83405;SHT30;73331;48.168;20.776;2024-03-22T06:26:23;9.39;71.15
83405;SHT30;73331;48.168;20.776;2024-03-22T06:27:54;9.69;70.15
83405;SHT30;73331;48.168;20.776;2024-03-22T06:29:24;9.73;69.70
83405;SHT30;73331;48.168;20.776;2024-03-22T06:30:55;9.71;69.85
83405;SHT30;73331;48.168;20.776;2024-03-22T06:32:25;9.80;69.73
83405;SHT30;73331;48.168;20.776;2024-03-22T06:33:55;9.82;69.54
83405;SHT30;73331;48.168;20.776;2024-03-22T06:35:32;9.88;69.30
83405;SHT30;73331;48.168;20.776;2024-03-22T06:37:02;9.90;69.23
83405;SHT30;73331;48.168;20.776;2024-03-22T06:38:33;9.87;69.37
83405;SHT30;73331;48.168;20.776;2024-03-22T06:40:04;9.80;69.76
83405;SHT30;73331;48.168;20.776;2024-03-22T06:41:36;9.85;69.47
83405;SHT30;73331;48.168;20.776;2024-03-22T06:43:06;9.94;69.10
83405;SHT30;73331;48.168;20.776;2024-03-22T06:44:37;9.50;70.80
83405;SHT30;73331;48.168;20.776;2024-03-22T06:46:07;9.36;71.47
83405;SHT30;73331;48.168;20.776;2024-03-22T06:47:38;9.26;71.41
83405;SHT30;73331;48.168;20.776;2024-03-22T06:49:08;9.31;71.40
83405;SHT30;73331;48.168;20.776;2024-03-22T06:50:39;9.37;70.96
83405;SHT30;73331;48.168;20.776;2024-03-22T06:52:09;9.47;70.47
83405;SHT30;73331;48.168;20.776;2024-03-22T06:53:40;9.37;70.19
83405;SHT30;73331;48.168;20.776;2024-03-22T06:55:10;9.24;70.71
83405;SHT30;73331;48.168;20.776;2024-03-22T06:56:41;9.37;70.19
83405;SHT30;73331;48.168;20.776;2024-03-22T06:58:11;9.41;69.85
83405;SHT30;73331;48.168;20.776;2024-03-22T06:59:42;9.67;69.57
83405;SHT30;73331;48.168;20.776;2024-03-22T07:01:12;9.73;69.33
83405;SHT30;73331;48.168;20.776;2024-03-22T07:02:43;9.81;68.96
83405;SHT30;73331;48.168;20.776;2024-03-22T07:04:14;9.94;68.13
83405;SHT30;73331;48.168;20.776;2024-03-22T07:05:47;9.91;68.29
83405;SHT30;73331;48.168;20.776;2024-03-22T07:07:18;10.04;67.97
83405;SHT30;73331;48.168;20.776;2024-03-22T07:08:48;9.98;68.00
83405;SHT30;73331;48.168;20.776;2024-03-22T07:10:19;9.97;68.16
83405;SHT30;73331;48.168;20.776;2024-03-22T07:11:49;9.88;68.15
83405;SHT30;73331;48.168;20.776;2024-03-22T07:13:21;9.91;68.31
83405;SHT30;73331;48.168;20.776;2024-03-22T07:14:51;10.14;67.89
83405;SHT30;73331;48.168;20.776;2024-03-22T07:16:22;10.09;67.95
83405;SHT30;73331;48.168;20.776;2024-03-22T07:17:53;10.12;68.19
83405;SHT30;73331;48.168;20.776;2024-03-22T07:19:23;10.12;67.81
83405;SHT30;73331;48.168;20.776;2024-03-22T07:20:54;10.18;67.23
83405;SHT30;73331;48.168;20.776;2024-03-22T07:22:24;10.16;66.79
83405;SHT30;73331;48.168;20.776;2024-03-22T07:23:55;10.08;67.17
83405;SHT30;73331;48.168;20.776;2024-03-22T07:25:25;10.14;67.18
83405;SHT30;73331;48.168;20.776;2024-03-22T07:26:56;10.19;66.89
83405;SHT30;73331;48.168;20.776;2024-03-22T07:28:26;10.75;64.34
83405;SHT30;73331;48.168;20.776;2024-03-22T07:29:57;11.04;63.43
83405;SHT30;73331;48.168;20.776;2024-03-22T07:31:27;10.93;63.38
83405;SHT30;73331;48.168;20.776;2024-03-22T07:32:58;10.49;65.39
83405;SHT30;73331;48.168;20.776;2024-03-22T07:34:29;10.97;63.96
83405;SHT30;73331;48.168;20.776;2024-03-22T07:36:03;10.89;63.81
83405;SHT30;73331;48.168;20.776;2024-03-22T07:37:33;11.31;61.90
83405;SHT30;73331;48.168;20.776;2024-03-22T07:39:05;11.51;61.03
83405;SHT30;73331;48.168;20.776;2024-03-22T07:40:36;11.65;59.85
83405;SHT30;73331;48.168;20.776;2024-03-22T07:42:07;11.68;60.08
83405;SHT30;73331;48.168;20.776;2024-03-22T07:43:37;11.68;60.74
83405;SHT30;73331;48.168;20.776;2024-03-22T07:45:08;11.32;62.17
83405;SHT30;73331;48.168;20.776;2024-03-22T07:46:39;11.34;62.24
83405;SHT30;73331;48.168;20.776;2024-03-22T07:48:10;11.52;62.14
83405;SHT30;73331;48.168;20.776;2024-03-22T07:49:41;11.74;60.94
83405;SHT30;73331;48.168;20.776;2024-03-22T07:51:11;11.62;61.86
83405;SHT30;73331;48.168;20.776;2024-03-22T07:52:42;11.67;61.62
83405;SHT30;73331;48.168;20.776;2024-03-22T07:54:12;11.71;62.13
83405;SHT30;73331;48.168;20.776;2024-03-22T07:55:43;11.99;59.27
83405;SHT30;73331;48.168;20.776;2024-03-22T07:57:13;12.16;57.80
83405;SHT30;73331;48.168;20.776;2024-03-22T07:58:44;12.21;57.47
83405;SHT30;73331;48.168;20.776;2024-03-22T08:00:15;12.40;56.64
83405;SHT30;73331;48.168;20.776;2024-03-22T08:01:45;12.33;56.53
83405;SHT30;73331;48.168;20.776;2024-03-22T08:03:17;12.40;56.89
83405;SHT30;73331;48.168;20.776;2024-03-22T08:04:47;12.21;57.00
83405;SHT30;73331;48.168;20.776;2024-03-22T08:06:19;12.46;56.45
83405;SHT30;73331;48.168;20.776;2024-03-22T08:07:50;12.35;56.43
83405;SHT30;73331;48.168;20.776;2024-03-22T08:09:20;12.63;55.95
83405;SHT30;73331;48.168;20.776;2024-03-22T08:10:51;12.77;55.80
83405;SHT30;73331;48.168;20.776;2024-03-22T08:12:21;12.76;55.58
83405;SHT30;73331;48.168;20.776;2024-03-22T08:13:52;12.83;55.84
83405;SHT30;73331;48.168;20.776;2024-03-22T08:15:23;12.79;56.01
83405;SHT30;73331;48.168;20.776;2024-03-22T08:16:53;12.81;54.95
83405;SHT30;73331;48.168;20.776;2024-03-22T08:18:24;12.84;55.12
83405;SHT30;73331;48.168;20.776;2024-03-22T08:19:54;12.81;55.95
83405;SHT30;73331;48.168;20.776;2024-03-22T08:21:25;12.77;55.96
83405;SHT30;73331;48.168;20.776;2024-03-22T08:22:56;12.86;55.89
83405;SHT30;73331;48.168;20.776;2024-03-22T08:24:26;13.49;52.92
83405;SHT30;73331;48.168;20.776;2024-03-22T08:25:57;13.71;52.65
83405;SHT30;73331;48.168;20.776;2024-03-22T08:27:27;13.76;51.42
83405;SHT30;73331;48.168;20.776;2024-03-22T08:28:58;13.83;51.56
83405;SHT30;73331;48.168;20.776;2024-03-22T08:30:29;13.98;51.04
83405;SHT30;73331;48.168;20.776;2024-03-22T08:32:00;14.12;51.26
83405;SHT30;73331;48.168;20.776;2024-03-22T08:33:33;14.09;50.60
83405;SHT30;73331;48.168;20.776;2024-03-22T08:35:04;14.19;50.64
83405;SHT30;73331;48.168;20.776;2024-03-22T08:36:34;14.44;49.29
83405;SHT30;73331;48.168;20.776;2024-03-22T08:38:05;14.36;50.48
83405;SHT30;73331;48.168;20.776;2024-03-22T08:39:40;14.50;49.14
83405;SHT30;73331;48.168;20.776;2024-03-22T08:41:11;14.71;48.93
83405;SHT30;73331;48.168;20.776;2024-03-22T08:42:42;14.78;48.82
83405;SHT30;73331;48.168;20.776;2024-03-22T08:44:12;14.43;49.02
83405;SHT30;73331;48.168;20.776;2024-03-22T08:45:43;14.46;49.14
83405;SHT30;73331;48.168;20.776;2024-03-22T08:47:14;14.44;49.35
83405;SHT30;73331;48.168;20.776;2024-03-22T08:48:44;14.40;49.29
83405;SHT30;73331;48.168;20.776;2024-03-22T08:50:15;14.14;50.41
83405;SHT30;73331;48.168;20.776;2024-03-22T08:51:45;14.10;50.91
83405;SHT30;73331;48.168;20.776;2024-03-22T08:53:16;14.08;51.60
83405;SHT30;73331;48.168;20.776;2024-03-22T08:54:47;14.30;50.95
83405;SHT30;73331;48.168;20.776;2024-03-22T08:56:18;14.46;50.05
83405;SHT30;73331;48.168;20.776;2024-03-22T08:57:48;14.36;50.62
83405;SHT30;73331;48.168;20.776;2024-03-22T08:59:19;14.17;51.29
83405;SHT30;73331;48.168;20.776;2024-03-22T09:00:49;14.12;51.34
83405;SHT30;73331;48.168;20.776;2024-03-22T09:02:20;14.32;51.40
83405;SHT30;73331;48.168;20.776;2024-03-22T09:03:51;14.48;50.87
83405;SHT30;73331;48.168;20.776;2024-03-22T09:05:22;14.38;51.34
83405;SHT30;73331;48.168;20.776;2024-03-22T09:06:52;14.23;52.02
83405;SHT30;73331;48.168;20.776;2024-03-22T09:08:23;14.44;51.77
83405;SHT30;73331;48.168;20.776;2024-03-22T09:09:53;14.50;50.73
83405;SHT30;73331;48.168;20.776;2024-03-22T09:11:24;14.51;49.87
83405;SHT30;73331;48.168;20.776;2024-03-22T09:12:55;14.61;50.80
83405;SHT30;73331;48.168;20.776;2024-03-22T09:14:26;14.43;52.09
83405;SHT30;73331;48.168;20.776;2024-03-22T09:15:57;14.50;51.67
83405;SHT30;73331;48.168;20.776;2024-03-22T09:17:28;14.78;51.13
83405;SHT30;73331;48.168;20.776;2024-03-22T09:18:59;14.85;51.31
83405;SHT30;73331;48.168;20.776;2024-03-22T09:20:30;14.83;52.16
83405;SHT30;73331;48.168;20.776;2024-03-22T09:22:00;14.84;51.19
83405;SHT30;73331;48.168;20.776;2024-03-22T09:23:31;14.48;51.88
83405;SHT30;73331;48.168;20.776;2024-03-22T09:25:02;14.87;51.06
83405;SHT30;73331;48.168;20.776;2024-03-22T09:26:32;14.97;51.66
83405;SHT30;73331;48.168;20.776;2024-03-22T09:28:03;14.99;51.02
83405;SHT30;73331;48.168;20.776;2024-03-22T09:29:35;14.95;50.99
83405;SHT30;73331;48.168;20.776;2024-03-22T09:31:06;14.99;51.51